Time;durP1;ratioP1;P1;durP2;ratioP2;P2;SDS_P1;SDS_P2;PMS_P1;PMS_P2;Temp;Humidity;BMP_temperature;BMP_pressure;BME280_temperature;BME280_humidity;BME280_pressure;Samples;Min_cycle;Max_cycle;Signal;HPM_P1;HPM_P2
2023/05/20 00:00:03;;;;;;;11.13;6.72;;;16.40;99.90;;;16.77;67.41;102394.78;4926745;29;20055;-66
2023/05/20 00:02:32;;;;;;;13.68;7.22;;;16.40;99.90;;;16.80;67.06;102392.09;4929690;29;20531;-66
2023/05/20 00:05:01;;;;;;;17.77;7.50;;;16.40;99.90;;;16.69;66.95;102390.38;4927751;29;20044;-66
2023/05/20 00:07:29;;;;;;;12.15;6.95;;;16.40;99.90;;;16.66;66.90;102393.97;4928802;29;20051;-66
2023/05/20 00:09:58;;;;;;;13.27;6.95;;;16.40;99.90;;;16.66;67.01;102393.97;4928871;29;20048;-66
2023/05/20 00:12:27;;;;;;;14.10;7.53;;;16.40;99.90;;;16.76;66.66;102401.00;4927958;29;20500;-66
2023/05/20 00:14:55;;;;;;;14.07;7.18;;;16.40;99.90;;;16.72;66.55;102387.69;4929050;29;20090;-67
2023/05/20 00:17:27;;;;;;;17.77;6.63;;;16.50;99.90;;;16.64;66.88;102401.09;4927191;29;20083;-67
2023/05/20 00:19:55;;;;;;;17.60;7.65;;;16.30;99.90;;;16.63;66.81;102396.63;4926455;29;20450;-66
2023/05/20 00:22:23;;;;;;;13.38;7.13;;;16.30;99.90;;;16.38;66.42;102368.22;4925567;29;20063;-66
2023/05/20 00:24:52;;;;;;;11.70;6.90;;;16.30;99.90;;;16.54;66.37;102399.34;4929381;29;20047;-66
2023/05/20 00:27:20;;;;;;;14.10;7.32;;;16.30;99.90;;;16.54;66.38;102396.69;4927222;29;20512;-66
2023/05/20 00:29:49;;;;;;;17.55;7.97;;;16.20;99.90;;;16.54;66.53;102393.13;4928746;29;20110;-66
2023/05/20 00:32:17;;;;;;;10.90;6.78;;;16.20;99.90;;;16.06;66.46;102319.41;4928231;29;20051;-66
2023/05/20 00:34:57;;;;;;;14.43;7.53;;;16.10;99.90;;;16.51;66.44;102398.50;4928334;29;20051;-66
2023/05/20 00:37:25;;;;;;;17.23;7.18;;;16.10;99.90;;;16.56;66.54;102402.91;4941095;29;20059;-66
2023/05/20 00:39:54;;;;;;;15.95;7.75;;;16.20;99.90;;;16.43;66.19;102373.56;4929801;29;20107;-66
2023/05/20 00:42:23;;;;;;;14.18;7.13;;;16.20;99.90;;;16.50;66.68;102402.94;4927350;29;20516;-66
2023/05/20 00:44:52;;;;;;;10.88;7.18;;;16.20;99.90;;;16.50;67.00;102394.03;4942887;29;20044;-66
2023/05/20 00:47:26;;;;;;;14.00;7.28;;;16.10;99.90;;;16.58;66.62;102394.88;4928101;29;20129;-66
2023/05/20 00:49:57;;;;;;;16.23;8.13;;;16.20;99.90;;;16.51;66.62;102391.34;4941500;29;20059;-66
2023/05/20 00:52:27;;;;;;;15.98;8.18;;;16.10;99.90;;;16.47;66.70;102381.56;4940632;29;20059;-66
2023/05/20 00:54:56;;;;;;;16.15;8.13;;;16.10;99.90;;;16.35;66.62;102381.59;4926204;29;20040;-66
2023/05/20 00:57:25;;;;;;;15.35;7.70;;;16.20;99.90;;;16.44;66.48;102378.88;4928730;29;20492;-66
2023/05/20 00:59:53;;;;;;;11.02;7.45;;;16.10;99.90;;;16.37;66.77;102379.81;4941650;29;20532;-67
2023/05/20 01:02:22;;;;;;;19.35;7.68;;;16.00;99.90;;;16.44;66.65;102373.53;4942476;29;20040;-66
2023/05/20 01:04:51;;;;;;;13.55;7.53;;;16.00;99.90;;;16.46;66.76;102382.44;4927479;29;20107;-66
2023/05/20 01:07:21;;;;;;;16.95;7.43;;;16.10;99.90;;;16.45;66.85;102366.41;4927085;29;20405;-66
2023/05/20 01:09:51;;;;;;;13.95;7.68;;;16.10;99.90;;;16.43;67.09;102369.09;4928272;29;20054;-66
2023/05/20 01:12:26;;;;;;;12.57;7.60;;;16.10;99.90;;;16.48;66.92;102370.00;4940628;29;20111;-66
2023/05/20 01:15:02;;;;;;;10.55;7.60;;;16.10;99.90;;;16.44;66.81;102370.88;4926495;29;20060;-66
2023/05/20 01:17:36;;;;;;;13.63;7.82;;;16.10;99.90;;;16.45;66.83;102374.44;4926923;29;20059;-66
2023/05/20 01:20:08;;;;;;;12.82;7.65;;;16.10;99.90;;;16.33;66.94;102372.69;4928692;29;20054;-66
2023/05/20 01:22:39;;;;;;;18.40;8.07;;;16.00;99.90;;;16.43;67.04;102365.53;4943338;29;20048;-66
2023/05/20 01:25:10;;;;;;;14.27;7.60;;;16.00;99.90;;;16.38;67.26;102375.34;4941220;29;20052;-66
2023/05/20 01:27:38;;;;;;;13.52;7.50;;;16.00;99.90;;;16.36;67.39;102370.00;4927046;29;20060;-66
2023/05/20 01:30:09;;;;;;;15.48;8.45;;;16.00;99.90;;;16.40;67.67;102368.19;4922799;29;20060;-66
2023/05/20 01:32:41;;;;;;;14.57;8.10;;;16.00;99.90;;;16.41;67.41;102361.97;4925940;29;20064;-66
2023/05/20 01:35:10;;;;;;;14.05;7.90;;;16.00;99.90;;;16.38;67.65;102354.84;4925185;29;20505;-66
2023/05/20 01:37:41;;;;;;;14.38;8.00;;;16.00;99.90;;;16.37;67.51;102363.78;4925343;29;20107;-67
2023/05/20 01:40:12;;;;;;;14.00;8.45;;;16.00;99.90;;;16.37;67.50;102363.78;4942579;29;20056;-67
2023/05/20 01:42:42;;;;;;;14.10;8.65;;;16.00;99.90;;;16.35;67.83;102354.88;4941106;29;20047;-67
2023/05/20 01:45:11;;;;;;;16.08;8.25;;;16.00;99.90;;;16.40;67.78;102362.84;4941033;28;20051;-66
2023/05/20 01:47:40;;;;;;;14.93;7.97;;;16.00;99.90;;;16.35;67.95;102352.22;4927613;29;20041;-67
2023/05/20 01:50:09;;;;;;;13.27;9.00;;;16.00;99.90;;;16.30;68.20;102345.13;4925735;29;20103;-66
2023/05/20 01:52:39;;;;;;;12.70;8.65;;;15.90;99.90;;;16.33;68.13;102347.78;4939461;29;20060;-66
2023/05/20 01:55:08;;;;;;;17.13;8.65;;;16.00;99.90;;;16.33;68.19;102347.78;4924897;29;20497;-66
2023/05/20 01:57:36;;;;;;;14.98;8.80;;;15.90;99.90;;;15.38;68.32;102204.84;4927261;28;20067;-66
2023/05/20 02:00:08;;;;;;;15.32;8.88;;;15.90;99.90;;;16.21;68.40;102336.25;4936803;29;20076;-66
2023/05/20 02:02:44;;;;;;;21.80;9.15;;;15.90;99.90;;;16.33;68.42;102342.44;4925465;29;20063;-65
2023/05/20 02:05:13;;;;;;;16.08;8.32;;;15.90;99.90;;;16.31;68.33;102342.44;4939700;28;20832;-66
2023/05/20 02:07:44;;;;;;;15.27;8.63;;;15.90;99.90;;;16.29;68.13;102346.91;4942802;29;20405;-66
2023/05/20 02:10:13;;;;;;;15.85;8.25;;;15.90;99.90;;;16.31;68.36;102341.53;4927704;29;20408;-66
2023/05/20 02:12:42;;;;;;;12.95;8.23;;;15.90;99.90;;;16.31;68.40;102344.22;4925122;29;20115;-66
2023/05/20 02:15:11;;;;;;;15.02;8.75;;;15.90;99.90;;;16.24;68.50;102343.34;4941449;28;20134;-66
2023/05/20 02:17:42;;;;;;;18.52;9.48;;;15.90;99.90;;;16.10;68.51;102345.19;4926004;29;20047;-66
2023/05/20 02:20:12;;;;;;;12.48;8.80;;;15.90;99.90;;;16.22;68.75;102353.13;4940279;28;20055;-66
2023/05/20 02:22:41;;;;;;;14.88;8.52;;;15.80;99.90;;;16.03;68.88;102322.06;4941739;29;20066;-66
2023/05/20 02:25:12;;;;;;;13.38;8.23;;;15.80;99.90;;;16.11;69.02;102344.28;4931080;29;20084;-66
2023/05/20 02:27:41;;;;;;;15.18;8.38;;;15.70;99.90;;;16.09;69.14;102341.63;4938991;29;20166;-66
2023/05/20 02:30:10;;;;;;;17.55;8.35;;;15.70;99.90;;;16.12;69.04;102340.75;4927161;29;20095;-66
2023/05/20 02:32:38;;;;;;;19.20;8.82;;;15.70;99.90;;;16.16;68.91;102342.50;4925096;29;20104;-66
2023/05/20 02:35:08;;;;;;;18.10;8.20;;;15.70;99.90;;;16.11;69.12;102344.28;4926143;28;20044;-66
2023/05/20 02:37:38;;;;;;;16.00;8.40;;;15.70;99.90;;;16.06;69.26;102339.00;4925875;29;20044;-66
2023/05/20 02:40:09;;;;;;;14.50;8.60;;;15.70;99.90;;;16.13;69.17;102340.72;4939745;29;20126;-66
2023/05/20 02:42:41;;;;;;;19.60;9.30;;;15.70;99.90;;;16.08;69.03;102328.28;4938586;29;20442;-66
2023/05/20 02:45:10;;;;;;;14.27;8.43;;;15.70;99.90;;;16.08;69.19;102326.53;4938783;29;20056;-66
2023/05/20 02:47:39;;;;;;;13.38;8.38;;;15.70;99.90;;;16.05;69.02;102330.97;4941306;29;20139;-65
2023/05/20 02:50:08;;;;;;;15.48;8.65;;;15.70;99.90;;;15.50;69.21;102233.31;4925097;29;20064;-65
2023/05/20 02:52:38;;;;;;;17.67;9.02;;;15.70;99.90;;;16.04;69.11;102332.75;4940669;29;20063;-65
2023/05/20 02:55:08;;;;;;;15.67;8.63;;;15.70;99.90;;;16.04;69.48;102335.44;4940637;29;20055;-65
2023/05/20 02:57:37;;;;;;;15.80;9.40;;;15.70;99.90;;;16.10;69.61;102327.38;4939699;28;20455;-65
2023/05/20 03:00:10;;;;;;;;;;;15.70;99.90;;;16.07;69.63;102327.41;4942155;29;20417;-66
2023/05/20 03:02:39;;;;;;;19.08;9.05;;;15.70;99.90;;;16.02;69.76;102337.22;4938539;29;19970;-65
2023/05/20 03:05:09;;;;;;;14.68;8.65;;;15.70;99.90;;;16.04;69.73;102329.19;4926691;29;20424;-66
2023/05/20 03:07:38;;;;;;;13.93;8.77;;;15.70;99.90;;;15.98;69.60;102310.53;4925125;29;20507;-65
2023/05/20 03:10:09;;;;;;;16.98;9.63;;;15.70;99.90;;;16.10;69.51;102327.38;4939476;29;20040;-66
2023/05/20 03:12:39;;;;;;;14.80;8.68;;;15.70;99.90;;;16.04;69.66;102323.84;4941377;29;20055;-65
2023/05/20 03:15:12;;;;;;;16.70;9.05;;;15.70;99.90;;;16.01;69.80;102323.84;4924486;29;20048;-65
2023/05/20 03:17:40;;;;;;;12.90;8.73;;;15.70;99.90;;;16.07;69.79;102332.72;4924371;29;20516;-66
2023/05/20 03:20:11;;;;;;;14.10;8.18;;;15.70;99.90;;;16.09;70.07;102330.94;4941930;29;20040;-66
2023/05/20 03:22:41;;;;;;;13.88;8.32;;;15.70;99.90;;;16.06;69.87;102325.63;4924869;29;20378;-65
2023/05/20 03:25:10;;;;;;;13.15;8.57;;;15.70;99.90;;;16.07;69.85;102322.06;4931989;29;20103;-66
2023/05/20 03:27:38;;;;;;;16.77;8.35;;;15.70;99.90;;;16.12;70.00;102330.94;4936631;29;20067;-65
2023/05/20 03:30:10;;;;;;;13.30;8.07;;;15.80;99.90;;;16.09;69.76;102330.06;4940529;29;20051;-65
2023/05/20 03:32:38;;;;;;;17.20;9.13;;;15.70;99.90;;;16.10;69.61;102330.03;4938688;29;20066;-65
2023/05/20 03:35:08;;;;;;;17.02;8.70;;;15.70;99.90;;;16.13;69.61;102337.16;4941391;29;20047;-65
2023/05/20 03:37:37;;;;;;;15.50;8.48;;;15.70;99.90;;;16.07;69.51;102326.50;4938404;29;20127;-65
2023/05/20 03:40:09;;;;;;;13.00;8.40;;;15.70;99.90;;;16.07;69.50;102347.84;4940696;28;20143;-65
2023/05/20 03:42:38;;;;;;;14.73;8.35;;;15.70;99.90;;;16.08;69.78;102329.19;4939595;29;20052;-65
2023/05/20 03:45:10;;;;;;;12.55;8.25;;;15.70;99.90;;;16.07;69.94;102327.41;4939475;29;20106;-65
2023/05/20 03:47:47;;;;;;;10.27;8.52;;;15.70;99.90;;;16.05;69.83;102321.19;4937823;29;20056;-66
2023/05/20 03:50:17;;;;;;;19.55;9.02;;;15.70;99.90;;;16.03;70.14;102319.41;4940800;28;20083;-65
2023/05/20 03:52:46;;;;;;;16.58;8.77;;;15.70;99.90;;;16.00;69.96;102319.41;4924353;29;20056;-66
2023/05/20 03:55:16;;;;;;;17.42;8.27;;;15.60;99.90;;;15.98;69.89;102323.88;4939990;28;20048;-66
2023/05/20 03:57:44;;;;;;;14.43;8.27;;;15.60;99.90;;;16.00;69.89;102324.75;4920944;29;20059;-65
2023/05/20 04:00:15;;;;;;;14.13;8.02;;;15.60;99.90;;;15.98;70.12;102323.88;4925354;29;20052;-65
2023/05/20 04:02:44;;;;;;;14.75;8.18;;;15.60;99.90;;;15.98;70.24;102315.88;4923696;29;20502;-66
2023/05/20 04:05:16;;;;;;;15.68;8.07;;;15.60;99.90;;;15.99;70.39;102317.63;4923294;29;20119;-66
2023/05/20 04:07:45;;;;;;;13.90;8.30;;;15.60;99.90;;;15.98;70.25;102319.44;4926288;29;20062;-65
2023/05/20 04:10:14;;;;;;;14.75;8.73;;;15.60;99.90;;;16.00;70.32;102319.41;4935399;29;20055;-65
2023/05/20 04:12:42;;;;;;;19.77;8.90;;;15.60;99.90;;;16.00;70.55;102325.66;4924236;29;20457;-66
2023/05/20 04:15:13;;;;;;;19.02;9.20;;;15.70;99.90;;;15.99;70.41;102318.53;4939519;28;20051;-65
2023/05/20 04:17:51;;;;;;;17.52;8.52;;;15.60;99.90;;;15.96;70.67;102312.31;4941211;29;20143;-65
2023/05/20 04:20:20;;;;;;;16.45;9.07;;;15.60;99.90;;;15.99;70.60;102330.97;4937962;28;20060;-65
2023/05/20 04:22:49;;;;;;;15.02;7.88;;;15.60;99.90;;;16.00;70.52;102320.31;4944052;28;20103;-66
2023/05/20 04:25:18;;;;;;;15.15;8.18;;;15.60;99.90;;;15.63;70.61;102262.59;4942032;29;20107;-66
2023/05/20 04:27:48;;;;;;;15.38;9.35;;;15.70;99.90;;;16.00;70.67;102324.75;4896975;29;20459;-65
2023/05/20 04:30:19;;;;;;;17.75;9.90;;;15.60;99.90;;;16.03;70.93;102324.72;4890390;29;20049;-65
2023/05/20 04:32:49;;;;;;;;;;;15.70;99.90;;;15.97;70.70;102322.09;4890031;29;20053;-65
2023/05/20 04:35:18;;;;;;;18.00;9.38;;;15.60;99.90;;;15.96;70.93;102328.31;4898484;29;20042;-65
2023/05/20 04:37:49;;;;;;;15.05;9.00;;;15.60;99.90;;;15.95;71.25;102323.91;4890867;29;20076;-65
2023/05/20 04:40:18;;;;;;;14.23;8.50;;;15.60;99.90;;;15.51;71.38;102237.72;4891370;29;20041;-66
2023/05/20 04:42:47;;;;;;;14.43;9.63;;;15.60;99.90;;;15.99;71.34;102320.28;4887787;29;20064;-65
2023/05/20 04:45:15;;;;;;;15.10;8.90;;;15.60;99.90;;;16.00;71.18;102312.31;4904995;29;20426;-66
2023/05/20 04:47:45;;;;;;;16.48;9.05;;;15.60;99.90;;;15.99;71.33;102302.50;4889951;29;20068;-65
2023/05/20 04:50:14;;;;;;;16.52;9.32;;;15.70;99.90;;;16.05;71.27;102323.84;4903994;29;20059;-65
2023/05/20 04:52:44;;;;;;;13.57;9.35;;;15.70;99.90;;;16.05;71.27;102317.59;4902069;29;20567;-65
2023/05/20 04:55:14;;;;;;;14.00;9.40;;;15.70;99.90;;;16.04;71.68;102321.19;4886785;29;20143;-65
2023/05/20 04:57:43;;;;;;;11.40;8.27;;;15.70;99.90;;;16.06;71.79;102316.72;4902725;29;20139;-65
2023/05/20 05:00:13;;;;;;;18.33;9.70;;;15.70;99.90;;;16.12;71.73;102322.06;4891136;29;20044;-65
2023/05/20 05:02:42;;;;;;;15.20;9.35;;;15.70;99.90;;;16.09;71.94;102319.38;4900453;29;20506;-65
2023/05/20 05:05:12;;;;;;;16.55;9.57;;;15.70;99.90;;;16.15;72.21;102314.03;4886404;29;20057;-65
2023/05/20 05:07:40;;;;;;;16.00;9.27;;;15.80;99.90;;;16.14;72.30;102317.59;4903733;29;20139;-66
2023/05/20 05:10:10;;;;;;;15.32;9.65;;;15.80;99.90;;;16.12;72.47;102316.72;4890152;29;20479;-66
2023/05/20 05:12:38;;;;;;;18.37;9.53;;;15.80;99.90;;;16.10;72.56;102321.16;4895151;29;20048;-66
2023/05/20 05:15:09;;;;;;;15.00;9.20;;;15.80;99.90;;;16.17;72.74;102322.91;4886837;29;20564;-66
2023/05/20 05:17:37;;;;;;;17.77;10.23;;;15.80;99.90;;;16.18;72.54;102322.03;4887776;29;20149;-66
2023/05/20 05:20:09;;;;;;;15.20;9.60;;;15.80;99.90;;;16.18;72.57;102316.69;4905130;29;20051;-66
2023/05/20 05:22:40;;;;;;;15.05;9.55;;;15.80;99.90;;;16.17;72.80;102320.25;4900224;29;20384;-65
2023/05/20 05:25:10;;;;;;;19.48;10.23;;;15.80;99.90;;;16.01;72.81;102287.38;4886970;29;20057;-65
2023/05/20 05:27:39;;;;;;;18.30;9.70;;;15.90;99.90;;;16.26;72.81;102313.06;4939066;29;20464;-65
2023/05/20 05:30:09;;;;;;;11.70;8.75;;;15.90;99.90;;;16.29;73.03;102314.84;4928170;29;20457;-65
2023/05/20 05:32:38;;;;;;;13.93;9.30;;;15.90;99.90;;;16.35;72.93;102308.59;4938858;29;20056;-66
2023/05/20 05:35:07;;;;;;;19.92;10.00;;;16.00;99.90;;;16.45;72.68;102311.22;4939897;29;20048;-65
2023/05/20 05:37:36;;;;;;;15.20;9.02;;;16.10;99.90;;;16.56;72.47;102312.06;4928271;28;20425;-65
2023/05/20 05:40:08;;;;;;;17.25;10.40;;;16.20;99.90;;;16.48;72.24;102284.50;4937741;29;20148;-65
2023/05/20 05:42:37;;;;;;;17.63;9.40;;;16.20;99.90;;;16.62;72.09;102308.47;4926982;29;20374;-65
2023/05/20 05:45:07;;;;;;;15.98;8.95;;;16.20;99.90;;;16.64;72.02;102306.69;4940849;29;20108;-65
2023/05/20 05:47:36;;;;;;;;;;;16.30;99.90;;;16.66;71.99;102307.56;4942978;29;20082;-65
2023/05/20 05:50:05;;;;;;;19.40;9.52;;;16.30;99.90;;;16.67;71.61;102312.00;4940173;29;19938;-65
2023/05/20 05:52:35;;;;;;;15.20;9.65;;;16.30;99.90;;;16.67;71.55;102302.19;4939710;29;20051;-65
2023/05/20 05:55:07;;;;;;;14.02;8.63;;;16.30;99.90;;;16.69;71.68;102311.09;4942817;28;20047;-67
2023/05/20 05:57:36;;;;;;;13.68;8.45;;;16.30;99.90;;;16.69;71.99;102305.75;4926088;29;20052;-65
2023/05/20 06:00:07;;;;;;;16.17;9.32;;;16.30;99.90;;;16.75;71.99;102303.03;4941629;28;20151;-65
2023/05/20 06:02:45;;;;;;;18.20;9.10;;;16.40;99.90;;;16.82;72.00;102296.75;4928332;29;20086;-66
2023/05/20 06:05:23;;;;;;;13.45;9.27;;;16.50;99.90;;;16.89;71.80;102301.16;4941611;29;20299;-65
2023/05/20 06:07:54;;;;;;;16.15;9.18;;;16.50;99.90;;;16.90;71.24;102316.28;4941455;29;20107;-65
2023/05/20 06:10:24;;;;;;;15.15;9.27;;;16.60;99.90;;;17.01;71.33;102308.19;4940329;28;20048;-65
2023/05/20 06:12:53;;;;;;;15.32;9.15;;;16.70;99.90;;;17.21;71.24;102316.06;4939597;29;20051;-66
2023/05/20 06:15:22;;;;;;;13.85;9.50;;;16.80;99.90;;;17.21;69.99;102314.25;4943175;29;20086;-65
2023/05/20 06:17:50;;;;;;;14.23;8.68;;;16.80;99.90;;;17.13;70.23;102313.44;4924819;29;20494;-66
2023/05/20 06:20:19;;;;;;;15.77;9.20;;;16.80;99.90;;;17.17;69.90;102314.31;4934048;29;20078;-66
2023/05/20 06:22:48;;;;;;;15.48;8.70;;;16.80;99.90;;;17.19;70.01;102309.84;4939714;29;20062;-65
2023/05/20 06:25:16;;;;;;;18.00;9.10;;;16.80;99.90;;;17.22;69.67;102316.03;4941435;29;20139;-66
2023/05/20 06:27:47;;;;;;;13.47;9.13;;;16.90;99.90;;;17.27;69.58;102313.31;4940648;29;20060;-66
2023/05/20 06:30:19;;;;;;;12.77;8.82;;;16.90;99.90;;;16.67;69.71;102200.66;4939844;28;20052;-66
2023/05/20 06:32:48;;;;;;;13.93;8.57;;;16.90;99.90;;;17.40;69.79;102317.69;4927126;29;20047;-66
2023/05/20 06:35:17;;;;;;;16.05;9.48;;;17.10;99.90;;;17.44;69.81;102300.69;4938550;28;20056;-65
2023/05/20 06:37:46;;;;;;;12.77;8.57;;;17.10;99.90;;;17.42;69.30;102303.34;4924288;29;20067;-66
2023/05/20 06:40:14;;;;;;;15.02;9.23;;;17.10;99.90;;;17.60;69.50;102305.00;4941779;28;20461;-65
2023/05/20 06:42:43;;;;;;;15.38;8.65;;;17.20;99.90;;;17.73;68.90;102306.66;4939544;29;20055;-66
2023/05/20 06:45:15;;;;;;;12.82;8.05;;;17.40;99.90;;;17.90;68.66;102308.22;4940398;28;20099;-66
2023/05/20 06:47:50;;;;;;;12.68;8.27;;;17.50;99.90;;;17.98;68.25;102310.84;4926740;29;20051;-66
2023/05/20 06:50:18;;;;;;;11.50;8.48;;;17.70;99.90;;;18.12;67.94;102298.16;4924359;29;20476;-66
2023/05/20 06:52:47;;;;;;;12.02;8.27;;;17.80;99.90;;;18.15;66.98;102295.44;4942169;29;20051;-66
2023/05/20 06:55:16;;;;;;;17.35;8.57;;;17.80;99.90;;;18.28;67.00;102293.50;4923177;29;20517;-66
2023/05/20 06:57:44;;;;;;;11.32;8.18;;;18.00;99.90;;;17.73;66.56;102189.75;4933257;29;20079;-66
2023/05/20 07:00:15;;;;;;;13.93;7.95;;;18.00;99.90;;;18.28;65.98;102272.06;4936658;29;20052;-65
2023/05/20 07:02:45;;;;;;;14.63;7.53;;;18.10;99.90;;;18.49;66.17;102294.13;4923488;29;20052;-66
2023/05/20 07:05:15;;;;;;;14.88;7.80;;;18.10;99.90;;;18.59;65.64;102287.72;4939880;29;20079;-66
2023/05/20 07:07:43;;;;;;;9.98;7.75;;;18.30;99.90;;;18.60;64.73;102296.66;4941377;29;20050;-66
2023/05/20 07:10:11;;;;;;;10.68;6.88;;;18.30;99.90;;;18.63;64.63;102280.53;4924382;29;20052;-66
2023/05/20 07:12:40;;;;;;;14.50;7.88;;;18.30;99.90;;;18.80;64.79;102290.06;4922477;29;20367;-66
2023/05/20 07:15:10;;;;;;;20.15;7.63;;;18.40;99.90;;;18.90;64.87;102280.97;4938689;29;20063;-67
2023/05/20 07:17:40;;;;;;;11.13;7.05;;;18.60;99.90;;;19.04;64.26;102287.91;4941583;29;20051;-66
2023/05/20 07:20:10;;;;;;;11.23;6.72;;;18.70;99.90;;;19.18;63.13;102289.44;4939561;29;20048;-67
2023/05/20 07:22:39;;;;;;;10.73;7.07;;;18.80;99.90;;;19.31;62.57;102279.41;4925593;29;20063;-68
2023/05/20 07:25:28;;;;;;;11.23;7.03;;;19.00;99.90;;;19.46;62.61;102282.72;4921885;29;20052;-67
2023/05/20 07:27:58;;;;;;;11.93;7.10;;;19.20;99.90;;;19.46;61.80;102276.47;4939742;29;20055;-68
2023/05/20 07:30:27;;;;;;;14.75;6.63;;;19.30;99.90;;;19.61;61.31;102273.47;4925097;29;20475;-68
2023/05/20 07:33:32;;;;;;;9.52;6.68;;;19.30;99.90;;;19.79;61.45;102278.50;4922140;29;20055;-68
2023/05/20 07:36:00;;;;;;;9.70;6.33;;;19.50;99.90;;;19.87;60.97;102279.25;4938178;29;20060;-68
2023/05/20 07:38:29;;;;;;;9.02;6.15;;;19.60;99.90;;;19.96;60.60;102276.34;4922655;29;20044;-68
2023/05/20 07:41:01;;;;;;;8.63;6.35;;;19.60;99.90;;;20.10;60.50;102278.75;4940879;28;20048;-69
2023/05/20 07:43:29;;;;;;;10.80;6.78;;;19.80;99.90;;;20.23;59.46;102277.59;4939410;29;20052;-68
2023/05/20 07:45:59;;;;;;;11.77;6.85;;;19.90;99.90;;;20.11;57.95;102280.53;4939493;28;20111;-68
2023/05/20 07:48:27;;;;;;;12.48;6.32;;;19.90;99.90;;;20.05;58.61;102275.28;4937204;29;20060;-68
2023/05/20 07:50:58;;;;;;;10.15;6.07;;;19.80;99.90;;;20.27;59.48;102269.44;4924285;29;20052;-68
2023/05/20 07:53:28;;;;;;;11.02;6.05;;;19.90;99.90;;;20.27;58.55;102261.38;4937913;28;20100;-68
2023/05/20 07:55:56;;;;;;;8.45;6.32;;;20.00;99.90;;;19.61;57.62;102152.66;4924387;29;20071;-68
2023/05/20 07:58:28;;;;;;;7.45;6.15;;;19.90;99.90;;;20.27;58.26;102263.19;4944386;29;20451;-68
2023/05/20 08:00:57;;;;;;;8.77;6.07;;;19.90;99.90;;;20.44;58.12;102263.72;4942714;29;20044;-68
2023/05/20 08:03:26;;;;;;;10.40;6.63;;;20.10;99.90;;;20.52;58.06;102262.59;4943597;29;20405;-68
2023/05/20 08:06:19;;;;;;;10.05;6.35;;;20.20;99.90;;;20.58;58.14;102259.78;4942290;29;20056;-68
2023/05/20 08:08:48;;;;;;;10.32;6.25;;;20.30;99.90;;;20.66;57.29;102257.78;4943002;29;20055;-68
2023/05/20 08:11:21;;;;;;;8.27;6.50;;;20.30;99.90;;;20.50;57.66;102256.38;4944160;29;20044;-68
2023/05/20 08:13:50;;;;;;;13.55;6.68;;;20.20;99.90;;;20.64;57.82;102259.63;4941666;28;20442;-68
2023/05/20 08:16:19;;;;;;;12.75;6.60;;;20.30;99.90;;;20.71;57.94;102259.50;4926449;29;20067;-68
2023/05/20 08:18:47;;;;;;;10.20;6.22;;;20.40;99.90;;;20.85;57.18;102263.59;4926801;29;20056;-68
2023/05/20 08:21:17;;;;;;;9.23;5.70;;;20.50;99.90;;;21.03;57.21;102271.25;4944060;29;20130;-69
2023/05/20 08:23:46;;;;;;;8.48;5.85;;;20.70;99.90;;;21.03;56.56;102270.38;4942270;29;20052;-68
2023/05/20 08:26:14;;;;;;;7.13;5.88;;;20.80;99.90;;;21.16;55.27;102270.03;4928201;29;20063;-68
2023/05/20 08:28:43;;;;;;;10.70;5.43;;;20.90;99.90;;;21.29;55.14;102267.91;4923845;29;20075;-68
2023/05/20 08:31:12;;;;;;;8.55;5.43;;;21.00;99.90;;;21.15;53.50;102262.88;4943227;29;20662;-67
2023/05/20 08:33:41;;;;;;;8.18;6.43;;;21.00;99.90;;;21.25;52.85;102263.53;4941654;28;20470;-68
2023/05/20 08:36:09;;;;;;;9.35;5.95;;;21.00;99.90;;;20.88;53.09;102238.44;4944082;29;20131;-67
2023/05/20 08:38:39;;;;;;;7.53;5.55;;;20.70;99.90;;;21.06;53.70;102254.16;4940848;29;20915;-67
2023/05/20 08:41:08;;;;;;;7.63;5.50;;;20.70;99.90;;;21.16;53.58;102244.91;4925111;29;20107;-68
2023/05/20 08:43:38;;;;;;;;;;;20.80;99.90;;;21.09;53.52;102237.94;4943959;29;20166;-68
2023/05/20 08:46:07;;;;;;;9.65;5.50;;;21.00;99.90;;;21.17;52.50;102250.28;4934131;29;19986;-68
2023/05/20 08:48:36;;;;;;;8.57;5.65;;;21.00;99.90;;;21.23;52.21;102263.56;4942265;29;20043;-68
2023/05/20 08:51:09;;;;;;;7.53;5.50;;;21.00;99.90;;;21.36;51.50;102239.88;4928014;29;20048;-68
2023/05/20 08:53:40;;;;;;;7.82;5.13;;;21.10;99.90;;;21.20;50.94;102241.22;4926263;29;20386;-68
2023/05/20 08:56:09;;;;;;;7.97;5.60;;;21.00;99.90;;;21.17;51.66;102241.31;4940306;29;20232;-68
2023/05/20 08:58:38;;;;;;;11.40;5.40;;;20.90;99.90;;;21.04;52.45;102234.47;4926202;29;20059;-67
2023/05/20 09:01:07;;;;;;;7.72;5.75;;;20.80;99.90;;;21.30;52.83;102240.06;4928429;29;20147;-67
2023/05/20 09:03:35;;;;;;;8.80;4.40;;;21.00;99.90;;;21.37;49.35;102238.94;4926855;29;20048;-67
2023/05/20 09:06:05;;;;;;;7.97;4.80;;;21.10;99.90;;;20.65;50.05;102228.25;4927966;29;20495;-68
2023/05/20 09:08:34;;;;;;;5.45;4.60;;;20.60;99.90;;;20.45;51.87;102236.78;4927653;29;20056;-68
2023/05/20 09:11:04;;;;;;;7.25;4.90;;;20.20;99.90;;;20.66;51.49;102222.84;4926749;29;20040;-68
2023/05/20 09:13:32;;;;;;;7.43;4.75;;;20.30;99.90;;;20.81;51.47;102229.63;4928658;29;20039;-67
2023/05/20 09:16:02;;;;;;;12.80;5.45;;;20.40;99.90;;;20.49;50.51;102199.97;4925642;29;20139;-68
2023/05/20 09:18:31;;;;;;;6.43;5.15;;;20.40;99.90;;;20.92;50.29;102232.06;4925597;29;20059;-68
2023/05/20 09:21:05;;;;;;;10.63;4.82;;;20.50;99.90;;;20.97;50.27;102225.63;4928592;29;20052;-68
2023/05/20 09:23:37;;;;;;;6.93;5.32;;;20.60;99.90;;;21.02;50.84;102237.19;4927462;29;20062;-68
2023/05/20 09:26:08;;;;;;;8.88;4.93;;;20.70;99.90;;;20.72;50.15;102218.22;4926233;29;20071;-67
2023/05/20 09:28:38;;;;;;;6.57;4.50;;;20.50;99.90;;;20.94;49.84;102209.59;4928503;29;20129;-67
2023/05/20 09:31:07;;;;;;;10.30;4.88;;;20.60;99.90;;;21.18;50.38;102214.34;4928972;29;20047;-67
2023/05/20 09:33:37;;;;;;;6.88;5.03;;;20.80;99.90;;;21.44;48.91;102222.63;4925459;29;20052;-67
2023/05/20 09:36:08;;;;;;;5.57;4.25;;;21.10;99.90;;;21.73;48.65;102213.72;4927725;29;20055;-69
2023/05/20 09:38:40;;;;;;;5.47;4.53;;;21.30;99.90;;;21.83;47.86;102211.66;4926712;29;20513;-68
2023/05/20 09:41:14;;;;;;;10.15;5.00;;;21.50;99.90;;;21.72;47.74;102202.97;4926679;29;20425;-68
2023/05/20 09:43:42;;;;;;;6.40;4.20;;;21.40;99.90;;;21.72;47.60;102190.38;4928829;29;20086;-68
2023/05/20 09:46:11;;;;;;;5.30;4.32;;;21.40;99.90;;;21.99;47.83;102211.13;4925078;29;20401;-68
2023/05/20 09:48:40;;;;;;;9.20;4.90;;;21.60;99.90;;;22.05;47.02;102205.56;4927878;29;20055;-68
2023/05/20 09:51:09;;;;;;;8.05;4.65;;;21.70;99.90;;;22.12;46.79;102196.38;4940396;29;20044;-68
2023/05/20 09:53:38;;;;;;;5.97;4.53;;;21.80;99.90;;;21.64;47.98;102197.78;4927093;29;20099;-68
2023/05/20 09:56:07;;;;;;;8.32;5.38;;;21.30;99.90;;;21.34;46.92;102209.44;4926801;29;20044;-68
2023/05/20 09:58:38;;;;;;;6.95;4.40;;;21.10;99.90;;;21.64;47.20;102186.16;4926295;29;20052;-68
2023/05/20 10:01:07;;;;;;;9.45;4.22;;;21.20;99.90;;;21.80;46.26;102184.75;4927835;29;20048;-68
2023/05/20 10:03:36;;;;;;;8.85;5.07;;;21.40;99.90;;;21.71;45.02;102183.22;4939623;28;20052;-68
2023/05/20 10:06:40;;;;;;;8.73;5.43;;;21.50;99.90;;;21.76;45.43;102181.28;4924987;29;20052;-68
2023/05/20 10:09:26;;;;;;;4.80;4.05;;;21.40;99.90;;;21.54;46.34;102182.84;4926367;29;20416;-68
2023/05/20 10:12:05;;;;;;;5.82;4.00;;;21.30;99.90;;;21.64;44.84;102175.38;4925098;29;20453;-68
2023/05/20 10:14:46;;;;;;;7.32;3.95;;;21.30;99.90;;;21.70;44.42;102153.66;4941260;28;20048;-68
2023/05/20 10:17:22;;;;;;;7.18;4.10;;;21.50;99.90;;;21.91;45.41;102175.44;4924491;29;20055;-68
2023/05/20 10:19:57;;;;;;;7.50;4.35;;;21.60;99.90;;;21.83;45.58;102172.13;4925574;29;20075;-68